1864 NOT_NAMED (1864052S15067)


IBTrACS version v04r00. Visit IBTrACS website for data access.
Please direct all questions to the IBTrACS Q and A forum

Storm track - Intensity - Wind Radii - Intensity Data - Source Data - All data

Summary Information

Storm ID 1864052S15067
Start Feb 21 06Z
End Feb 27 06Z
ATCF IDs
Track status Best track data.

Storm track plot

Map of storm track

Intensity plots

No Intensity information for this storm


Radial wind information

No radial wind information for this storm


Position and Intensity Table

BASIN ISO_TIME_________ NATURE LAT LON
degrees north degrees east
SI 1864-02-21 06:00:00 NR -15.40 67.30
SI 09:00:00 NR -15.38 67.34
SI 12:00:00 NR -15.38 67.36
SI 15:00:00 NR -15.39 67.35
SI 18:00:00 NR -15.44 67.29
SI 21:00:00 NR -15.54 67.17
SI 1864-02-22 00:00:00 NR -15.69 66.98
SI 03:00:00 NR -15.91 66.69
SI 06:00:00 NR -16.20 66.32
SI 09:00:00 NR -16.63 65.78
SI 12:00:00 NR -17.12 65.14
SI 15:00:00 NR -17.66 64.45
SI 18:00:00 NR -18.19 63.72
SI 21:00:00 NR -18.73 62.97
SI 1864-02-23 00:00:00 NR -19.27 62.22
SI 03:00:00 NR -19.80 61.50
SI 06:00:00 NR -20.30 60.85
SI 09:00:00 NR -20.75 60.31
SI 12:00:00 NR -21.17 59.83
SI 15:00:00 NR -21.59 59.40
SI 18:00:00 NR -22.00 59.00
SI 21:00:00 NR -22.42 58.59
SI 1864-02-24 00:00:00 NR -22.83 58.21
SI 03:00:00 NR -23.25 57.86
SI 06:00:00 NR -23.65 57.55
SI 09:00:00 NR -24.03 57.25
SI 12:00:00 NR -24.41 56.98
SI 15:00:00 NR -24.79 56.75
SI 18:00:00 NR -25.19 56.55
SI 21:00:00 NR -25.61 56.38
SI 1864-02-25 00:00:00 NR -26.05 56.23
SI 03:00:00 NR -26.51 56.10
SI 06:00:00 NR -27.00 56.00
SI 09:00:00 NR -27.54 55.88
SI 12:00:00 NR -28.11 55.79
SI 15:00:00 NR -28.68 55.72
SI 18:00:00 NR -29.25 55.68
SI 21:00:00 NR -29.79 55.67
SI 1864-02-26 00:00:00 NR -30.31 55.69
SI 03:00:00 NR -30.79 55.72
SI 06:00:00 NR -31.22 55.74
SI 09:00:00 NR -31.55 55.74
SI 12:00:00 NR -31.83 55.78
SI 15:00:00 NR -32.04 55.82
SI 18:00:00 NR -32.22 55.87
SI 21:00:00 NR -32.35 55.93
SI 1864-02-27 00:00:00 NR -32.45 55.98
SI 03:00:00 NR -32.53 56.04
SI 06:00:00 NR -32.60 56.10

Source Information

Agency Information
USA
TOKYO
CMA
HKO
NEWDELHI
REUNION WMO-Best-Tracks.txt:Line=556:xxxx864080
BOM
NADI
WELLINGTON
DS824
TD9636 cons_worldwide_trop_cyclone_18710101-19891231-005:Line=766
TD9635
NEUMANN
MLC

All available IBTrACS Data

SEASON BASIN SUBBASIN ISO_TIME_________ NATURE LAT LON WMO AGENCY DIST2LAND LANDFALL IFLAG USA SSHS REUNION LAT REUNION LON REUNION TYPE REUNION TNUM TD9636 LAT TD9636 LON TD9636 STAGE STORM SPEED STORM DIR
Year degrees north degrees east km km 1 degrees north degrees east 1 degrees north degrees east kts degrees
1864 SI MM 1864-02-21 06:00:00 NR -15.40 67.30 reunion 1144 1144 _____O________ -1 -15.40 67.30 99 9.90 1 64
1864 SI MM 09:00:00 NR -15.38 67.34 1144 1144 _____P________ -1 -15.38 67.34 99 1 66
1864 SI MM 12:00:00 NR -15.38 67.36 1153 1144 _____P________ -1 -15.38 67.36 99 0 0
1864 SI MM 15:00:00 NR -15.39 67.35 1144 1144 _____P________ -1 -15.39 67.35 99 1 227
1864 SI MM 18:00:00 NR -15.44 67.29 1144 1129 _____P________ -1 -15.44 67.29 99 2 229
1864 SI MM 21:00:00 NR -15.54 67.17 1129 1100 _____P________ -1 -15.54 67.17 99 4 231
1864 SI MM 1864-02-22 00:00:00 NR -15.69 66.98 1100 1061 _____P________ -1 -15.69 66.98 99 6 231
1864 SI MM 03:00:00 NR -15.91 66.69 1061 1007 _____P________ -1 -15.91 66.69 99 8 231
1864 SI MM 06:00:00 NR -16.20 66.32 reunion 1007 939 _____O____O___ -1 -16.20 66.30 99 9.90 -16.20 66.40 7 11 231
1864 SI MM 09:00:00 NR -16.63 65.78 939 857 _____P____P___ -1 -16.58 65.79 99 -16.73 65.75 7 15 231
1864 SI MM 12:00:00 NR -17.12 65.14 848 766 _____P____P___ -1 -17.03 65.17 99 -17.25 65.09 7 16 231
1864 SI MM 15:00:00 NR -17.66 64.45 752 672 _____P____P___ -1 -17.53 64.49 99 -17.78 64.41 7 17 232
1864 SI MM 18:00:00 NR -18.19 63.72 662 573 _____P____O___ -1 -18.08 63.75 99 -18.30 63.70 7 18 233
1864 SI MM 21:00:00 NR -18.73 62.97 573 486 _____P____P___ -1 -18.64 62.98 99 -18.82 62.96 7 18 233
1864 SI MM 1864-02-23 00:00:00 NR -19.27 62.22 473 390 _____P____P___ -1 -19.21 62.22 99 -19.33 62.23 7 18 232
1864 SI MM 03:00:00 NR -19.80 61.50 390 323 _____P____P___ -1 -19.77 61.48 99 -19.83 61.53 7 17 231
1864 SI MM 06:00:00 NR -20.30 60.85 reunion 323 264 _____O____O___ -1 -20.30 60.80 99 9.90 -20.30 60.90 7 15 230
1864 SI MM 09:00:00 NR -20.75 60.31 264 236 _____P____P___ -1 -20.75 60.24 99 -20.75 60.39 7 13 227
1864 SI MM 12:00:00 NR -21.17 59.83 231 208 _____P____P___ -1 -21.18 59.72 99 -21.17 59.95 7 12 225
1864 SI MM 15:00:00 NR -21.59 59.40 215 212 _____P____P___ -1 -21.60 59.24 99 -21.59 59.56 7 11 223
1864 SI MM 18:00:00 NR -22.00 59.00 215 215 _____P____O___ -1 -22.01 58.80 99 -22.00 59.20 7 11 222
1864 SI MM 21:00:00 NR -22.42 58.59 231 231 _____P____P___ -1 -22.41 58.39 99 -22.43 58.79 7 11 221
1864 SI MM 1864-02-24 00:00:00 NR -22.83 58.21 262 262 _____P____P___ -1 -22.80 58.03 99 -22.86 58.40 7 11 219
1864 SI MM 03:00:00 NR -23.25 57.86 302 302 _____P____P___ -1 -23.20 57.70 99 -23.29 58.03 7 10 217
1864 SI MM 06:00:00 NR -23.65 57.55 reunion 316 320 _____O____O___ -1 -23.60 57.40 99 9.90 -23.70 57.70 7 10 216
1864 SI MM 09:00:00 NR -24.03 57.25 333 333 _____P____P___ -1 -23.99 57.10 99 -24.07 57.40 7 9 214
1864 SI MM 12:00:00 NR -24.41 56.98 364 364 _____P____P___ -1 -24.38 56.83 99 -24.43 57.13 7 9 211
1864 SI MM 15:00:00 NR -24.79 56.75 399 396 _____P____P___ -1 -24.77 56.60 99 -24.80 56.90 7 9 207
1864 SI MM 18:00:00 NR -25.19 56.55 436 434 _____P____O___ -1 -25.17 56.41 99 -25.20 56.70 7 9 203
1864 SI MM 21:00:00 NR -25.61 56.38 476 476 _____P____P___ -1 -25.58 56.24 99 -25.63 56.51 7 9 199
1864 SI MM 1864-02-25 00:00:00 NR -26.05 56.23 517 517 _____P____P___ -1 -26.00 56.10 99 -26.10 56.35 7 9 195
1864 SI MM 03:00:00 NR -26.51 56.10 572 572 _____P____P___ -1 -26.44 55.99 99 -26.59 56.22 7 10 192
1864 SI MM 06:00:00 NR -27.00 56.00 reunion 627 627 _____O____O___ -1 -26.90 55.90 99 9.90 -27.10 56.10 7 11 191
1864 SI MM 09:00:00 NR -27.54 55.88 682 682 _____P____P___ -1 -27.45 55.80 99 -27.64 55.96 7 11 190
1864 SI MM 12:00:00 NR -28.11 55.79 748 748 _____P____P___ -1 -28.02 55.73 99 -28.19 55.84 7 12 187
1864 SI MM 15:00:00 NR -28.68 55.72 815 815 _____P____P___ -1 -28.61 55.68 99 -28.75 55.75 7 11 185
1864 SI MM 18:00:00 NR -29.25 55.68 871 871 _____P____O___ -1 -29.19 55.65 99 -29.30 55.70 7 11 182
1864 SI MM 21:00:00 NR -29.79 55.67 938 938 _____P____P___ -1 -29.76 55.65 99 -29.82 55.70 7 11 0
1864 SI MM 1864-02-26 00:00:00 NR -30.31 55.69 994 994 _____P____P___ -1 -30.29 55.65 99 -30.33 55.74 7 10 177
1864 SI MM 03:00:00 NR -30.79 55.72 1050 1050 _____P____P___ -1 -30.78 55.67 99 -30.82 55.81 7 9 178
1864 SI MM 06:00:00 NR -31.22 55.74 reunion 1089 1089 _____O____O___ -1 -31.20 55.70 99 9.90 -31.30 55.90 7 8 0
1864 SI MM 09:00:00 NR -31.55 55.74 1110 1110 _____P________ -1 -31.55 55.74 99 7 6 177
1864 SI MM 12:00:00 NR -31.83 55.78 1138 1138 _____P________ -1 -31.83 55.78 99 7 5 171
1864 SI MM 15:00:00 NR -32.04 55.82 1152 1152 _____P________ -1 -32.04 55.82 99 7 4 168
1864 SI MM 18:00:00 NR -32.22 55.87 1174 1174 _____P________ -1 -32.22 55.87 99 3 163
1864 SI MM 21:00:00 NR -32.35 55.93 1181 1181 _____P________ -1 -32.35 55.93 99 3 158
1864 SI MM 1864-02-27 00:00:00 NR -32.45 55.98 1195 1195 _____P________ -1 -32.45 55.98 99 2 153
1864 SI MM 03:00:00 NR -32.53 56.04 1202 1202 _____P________ -1 -32.53 56.04 99 2 148
1864 SI MM 06:00:00 NR -32.60 56.10 reunion 1217 _____O________ -1 -32.60 56.10 99 9.90 2 144